sensor_id;sensor_type;location;lat;lon;timestamp;temperature;humidity
64918;HTU21D;52176;44.858;38.372;2022-09-20T00:02:19;12.08;78.82
64918;HTU21D;52176;44.858;38.372;2022-09-20T00:04:46;12.07;78.86
64918;HTU21D;52176;44.858;38.372;2022-09-20T00:07:12;12.03;78.92
64918;HTU21D;52176;44.858;38.372;2022-09-20T00:09:38;12.02;79.01
64918;HTU21D;52176;44.858;38.372;2022-09-20T00:12:05;12.01;79.03
64918;HTU21D;52176;44.858;38.372;2022-09-20T00:14:31;11.98;79.12
64918;HTU21D;52176;44.858;38.372;2022-09-20T00:16:57;11.96;79.16
64918;HTU21D;52176;44.858;38.372;2022-09-20T00:19:23;11.93;79.18
64918;HTU21D;52176;44.858;38.372;2022-09-20T00:21:48;11.91;79.22
64918;HTU21D;52176;44.858;38.372;2022-09-20T00:24:14;11.89;79.31
64918;HTU21D;52176;44.858;38.372;2022-09-20T00:26:40;11.88;79.40
64918;HTU21D;52176;44.858;38.372;2022-09-20T00:29:06;11.84;79.35
64918;HTU21D;52176;44.858;38.372;2022-09-20T00:31:32;11.81;79.43
64918;HTU21D;52176;44.858;38.372;2022-09-20T00:33:58;11.75;79.49
64918;HTU21D;52176;44.858;38.372;2022-09-20T00:36:42;11.69;79.40
64918;HTU21D;52176;44.858;38.372;2022-09-20T00:39:09;11.62;79.41
64918;HTU21D;52176;44.858;38.372;2022-09-20T00:41:35;11.58;79.46
64918;HTU21D;52176;44.858;38.372;2022-09-20T00:44:02;11.54;79.57
64918;HTU21D;52176;44.858;38.372;2022-09-20T00:46:47;11.51;79.52
64918;HTU21D;52176;44.858;38.372;2022-09-20T00:49:17;11.49;79.53
64918;HTU21D;52176;44.858;38.372;2022-09-20T00:51:48;11.49;79.50
64918;HTU21D;52176;44.858;38.372;2022-09-20T00:54:15;11.48;79.56
64918;HTU21D;52176;44.858;38.372;2022-09-20T00:56:43;11.45;79.55
64918;HTU21D;52176;44.858;38.372;2022-09-20T00:59:22;11.43;79.63
64918;HTU21D;52176;44.858;38.372;2022-09-20T01:02:00;11.44;79.58
64918;HTU21D;52176;44.858;38.372;2022-09-20T01:04:27;11.44;79.61
64918;HTU21D;52176;44.858;38.372;2022-09-20T01:06:53;11.44;79.66
64918;HTU21D;52176;44.858;38.372;2022-09-20T01:09:20;11.42;79.71
64918;HTU21D;52176;44.858;38.372;2022-09-20T01:11:46;11.42;79.75
64918;HTU21D;52176;44.858;38.372;2022-09-20T01:14:13;11.40;79.82
64918;HTU21D;52176;44.858;38.372;2022-09-20T01:16:40;11.38;79.87
64918;HTU21D;52176;44.858;38.372;2022-09-20T01:19:09;11.37;79.94
64918;HTU21D;52176;44.858;38.372;2022-09-20T01:21:37;11.36;79.93
64918;HTU21D;52176;44.858;38.372;2022-09-20T01:26:36;11.30;80.02
64918;HTU21D;52176;44.858;38.372;2022-09-20T01:29:08;11.30;80.11
64918;HTU21D;52176;44.858;38.372;2022-09-20T01:31:37;11.32;80.08
64918;HTU21D;52176;44.858;38.372;2022-09-20T01:34:13;11.34;80.11
64918;HTU21D;52176;44.858;38.372;2022-09-20T01:36:51;11.36;79.65
64918;HTU21D;52176;44.858;38.372;2022-09-20T01:41:49;11.33;79.69
64918;HTU21D;52176;44.858;38.372;2022-09-20T01:46:42;11.34;79.93
64918;HTU21D;52176;44.858;38.372;2022-09-20T01:54:17;11.41;80.11
64918;HTU21D;52176;44.858;38.372;2022-09-20T02:10:02;11.47;80.43
64918;HTU21D;52176;44.858;38.372;2022-09-20T02:25:19;11.60;80.69
64918;HTU21D;52176;44.858;38.372;2022-09-20T02:28:04;11.61;80.68
64918;HTU21D;52176;44.858;38.372;2022-09-20T02:35:36;11.62;80.81
64918;HTU21D;52176;44.858;38.372;2022-09-20T02:40:38;11.60;80.99
64918;HTU21D;52176;44.858;38.372;2022-09-20T02:48:35;11.59;80.98
64918;HTU21D;52176;44.858;38.372;2022-09-20T02:51:05;11.58;81.04
64918;HTU21D;52176;44.858;38.372;2022-09-20T02:53:47;11.57;81.07
64918;HTU21D;52176;44.858;38.372;2022-09-20T02:56:21;11.58;81.14
64918;HTU21D;52176;44.858;38.372;2022-09-20T02:59:05;11.58;81.14
64918;HTU21D;52176;44.858;38.372;2022-09-20T03:07:02;11.58;81.20
64918;HTU21D;52176;44.858;38.372;2022-09-20T03:17:21;11.48;81.32
64918;HTU21D;52176;44.858;38.372;2022-09-20T03:19:52;11.48;81.35
64918;HTU21D;52176;44.858;38.372;2022-09-20T03:28:14;11.46;81.38
64918;HTU21D;52176;44.858;38.372;2022-09-20T03:30:26;11.45;81.28
64918;HTU21D;52176;44.858;38.372;2022-09-20T03:33:10;11.45;81.31
64918;HTU21D;52176;44.858;38.372;2022-09-20T03:35:55;11.45;81.31
64918;HTU21D;52176;44.858;38.372;2022-09-20T03:38:38;11.44;81.34
64918;HTU21D;52176;44.858;38.372;2022-09-20T03:43:39;11.47;81.42
64918;HTU21D;52176;44.858;38.372;2022-09-20T03:46:21;11.54;81.45
64918;HTU21D;52176;44.858;38.372;2022-09-20T04:02:23;11.96;81.11
64918;HTU21D;52176;44.858;38.372;2022-09-20T04:05:08;12.16;80.87
64918;HTU21D;52176;44.858;38.372;2022-09-20T04:20:45;13.71;78.66
64918;HTU21D;52176;44.858;38.372;2022-09-20T04:26:10;14.25;77.90
64918;HTU21D;52176;44.858;38.372;2022-09-20T04:28:39;14.47;77.63
64918;HTU21D;52176;44.858;38.372;2022-09-20T04:31:42;14.68;77.38
64918;HTU21D;52176;44.858;38.372;2022-09-20T04:33:59;14.94;77.05
64918;HTU21D;52176;44.858;38.372;2022-09-20T04:52:31;16.54;74.77
64918;HTU21D;52176;44.858;38.372;2022-09-20T05:00:07;17.56;73.34
64918;HTU21D;52176;44.858;38.372;2022-09-20T05:05:19;18.09;72.20
64918;HTU21D;52176;44.858;38.372;2022-09-20T05:18:37;19.35;69.80
64918;HTU21D;52176;44.858;38.372;2022-09-20T05:21:15;19.37;69.69
64918;HTU21D;52176;44.858;38.372;2022-09-20T05:26:22;19.43;69.36
64918;HTU21D;52176;44.858;38.372;2022-09-20T05:28:55;19.66;68.98
64918;HTU21D;52176;44.858;38.372;2022-09-20T05:31:40;20.05;68.34
64918;HTU21D;52176;44.858;38.372;2022-09-20T05:34:11;20.64;67.51
64918;HTU21D;52176;44.858;38.372;2022-09-20T05:44:48;22.48;63.33
64918;HTU21D;52176;44.858;38.372;2022-09-20T06:03:31;22.50;60.57
64918;HTU21D;52176;44.858;38.372;2022-09-20T06:08:58;23.18;57.86
64918;HTU21D;52176;44.858;38.372;2022-09-20T06:16:58;24.57;55.06
64918;HTU21D;52176;44.858;38.372;2022-09-20T06:22:15;24.85;53.40
64918;HTU21D;52176;44.858;38.372;2022-09-20T06:24:50;24.56;52.91
64918;HTU21D;52176;44.858;38.372;2022-09-20T06:27:20;24.43;52.43
64918;HTU21D;52176;44.858;38.372;2022-09-20T06:29:52;24.45;52.12
64918;HTU21D;52176;44.858;38.372;2022-09-20T06:32:20;24.21;52.10
64918;HTU21D;52176;44.858;38.372;2022-09-20T06:34:45;23.85;52.69
64918;HTU21D;52176;44.858;38.372;2022-09-20T06:42:52;23.61;54.08
64918;HTU21D;52176;44.858;38.372;2022-09-20T06:45:19;24.24;53.42
64918;HTU21D;52176;44.858;38.372;2022-09-20T06:47:45;25.02;52.49
64918;HTU21D;52176;44.858;38.372;2022-09-20T06:50:14;25.75;51.14
64918;HTU21D;52176;44.858;38.372;2022-09-20T06:52:41;26.25;50.21
64918;HTU21D;52176;44.858;38.372;2022-09-20T06:55:12;26.72;49.60
64918;HTU21D;52176;44.858;38.372;2022-09-20T06:57:42;27.12;48.77
64918;HTU21D;52176;44.858;38.372;2022-09-20T07:00:09;27.36;48.05
64918;HTU21D;52176;44.858;38.372;2022-09-20T07:02:36;27.49;47.57
64918;HTU21D;52176;44.858;38.372;2022-09-20T07:05:02;27.64;47.28
64918;HTU21D;52176;44.858;38.372;2022-09-20T07:07:29;27.98;47.19
64918;HTU21D;52176;44.858;38.372;2022-09-20T07:09:54;28.40;46.15
64918;HTU21D;52176;44.858;38.372;2022-09-20T07:12:20;28.73;45.66
64918;HTU21D;52176;44.858;38.372;2022-09-20T07:14:46;29.05;44.64
64918;HTU21D;52176;44.858;38.372;2022-09-20T07:17:12;28.73;44.20
64918;HTU21D;52176;44.858;38.372;2022-09-20T07:19:38;28.19;44.99
64918;HTU21D;52176;44.858;38.372;2022-09-20T07:22:04;27.97;45.66
64918;HTU21D;52176;44.858;38.372;2022-09-20T07:24:29;28.39;45.44
64918;HTU21D;52176;44.858;38.372;2022-09-20T07:27:00;29.09;44.86
64918;HTU21D;52176;44.858;38.372;2022-09-20T07:29:26;29.38;43.91
64918;HTU21D;52176;44.858;38.372;2022-09-20T07:31:52;29.01;43.54
64918;HTU21D;52176;44.858;38.372;2022-09-20T07:34:19;28.38;44.48
64918;HTU21D;52176;44.858;38.372;2022-09-20T07:36:45;27.94;45.40
64918;HTU21D;52176;44.858;38.372;2022-09-20T07:39:11;28.01;45.79
64918;HTU21D;52176;44.858;38.372;2022-09-20T07:41:37;28.64;45.01
64918;HTU21D;52176;44.858;38.372;2022-09-20T07:44:03;29.15;43.93
64918;HTU21D;52176;44.858;38.372;2022-09-20T07:46:55;29.50;43.11
64918;HTU21D;52176;44.858;38.372;2022-09-20T07:49:22;29.72;42.37
64918;HTU21D;52176;44.858;38.372;2022-09-20T07:51:48;30.02;42.49
64918;HTU21D;52176;44.858;38.372;2022-09-20T07:54:15;30.53;41.83
64918;HTU21D;52176;44.858;38.372;2022-09-20T07:56:40;31.07;41.08
64918;HTU21D;52176;44.858;38.372;2022-09-20T07:59:06;31.57;40.51
64918;HTU21D;52176;44.858;38.372;2022-09-20T08:01:32;31.82;39.46
64918;HTU21D;52176;44.858;38.372;2022-09-20T08:03:58;31.42;39.88
64918;HTU21D;52176;44.858;38.372;2022-09-20T08:06:24;31.09;40.07
64918;HTU21D;52176;44.858;38.372;2022-09-20T08:08:51;30.67;40.81
64918;HTU21D;52176;44.858;38.372;2022-09-20T08:11:18;30.30;41.38
64918;HTU21D;52176;44.858;38.372;2022-09-20T08:13:46;29.94;41.87
64918;HTU21D;52176;44.858;38.372;2022-09-20T08:16:12;29.52;42.67
64918;HTU21D;52176;44.858;38.372;2022-09-20T08:18:45;29.46;43.20
64918;HTU21D;52176;44.858;38.372;2022-09-20T08:21:11;29.95;43.01
64918;HTU21D;52176;44.858;38.372;2022-09-20T08:23:38;30.77;41.87
64918;HTU21D;52176;44.858;38.372;2022-09-20T08:26:06;31.53;40.70
64918;HTU21D;52176;44.858;38.372;2022-09-20T08:28:32;31.95;39.74
64918;HTU21D;52176;44.858;38.372;2022-09-20T08:31:04;32.20;39.64
64918;HTU21D;52176;44.858;38.372;2022-09-20T08:33:31;32.81;40.00
64918;HTU21D;52176;44.858;38.372;2022-09-20T08:35:57;33.20;38.96
64918;HTU21D;52176;44.858;38.372;2022-09-20T08:38:23;33.35;37.86
64918;HTU21D;52176;44.858;38.372;2022-09-20T08:40:59;33.26;37.91
64918;HTU21D;52176;44.858;38.372;2022-09-20T08:43:27;33.18;37.75
64918;HTU21D;52176;44.858;38.372;2022-09-20T08:45:55;33.19;37.64
64918;HTU21D;52176;44.858;38.372;2022-09-20T08:48:22;33.18;37.92
64918;HTU21D;52176;44.858;38.372;2022-09-20T08:50:51;33.36;37.66
64918;HTU21D;52176;44.858;38.372;2022-09-20T08:53:17;33.58;37.30
64918;HTU21D;52176;44.858;38.372;2022-09-20T08:55:46;33.79;37.21
64918;HTU21D;52176;44.858;38.372;2022-09-20T08:58:12;33.96;36.85
64918;HTU21D;52176;44.858;38.372;2022-09-20T09:00:39;34.12;36.67
64918;HTU21D;52176;44.858;38.372;2022-09-20T09:03:09;34.07;36.59
64918;HTU21D;52176;44.858;38.372;2022-09-20T09:08:04;34.46;36.51
64918;HTU21D;52176;44.858;38.372;2022-09-20T09:10:34;34.66;36.01
64918;HTU21D;52176;44.858;38.372;2022-09-20T09:13:01;34.82;35.84
64918;HTU21D;52176;44.858;38.372;2022-09-20T09:15:33;35.01;35.42
64918;HTU21D;52176;44.858;38.372;2022-09-20T09:18:00;35.16;35.66
64918;HTU21D;52176;44.858;38.372;2022-09-20T09:20:26;35.26;35.32
64918;HTU21D;52176;44.858;38.372;2022-09-20T09:25:29;34.92;35.55
64918;HTU21D;52176;44.858;38.372;2022-09-20T09:30:40;34.35;35.69
64918;HTU21D;52176;44.858;38.372;2022-09-20T09:36:05;33.25;37.19
64918;HTU21D;52176;44.858;38.372;2022-09-20T09:38:37;32.85;38.09
64918;HTU21D;52176;44.858;38.372;2022-09-20T09:41:06;33.17;37.89
64918;HTU21D;52176;44.858;38.372;2022-09-20T09:43:36;33.18;37.62
64918;HTU21D;52176;44.858;38.372;2022-09-20T09:46:19;33.07;38.09
64918;HTU21D;52176;44.858;38.372;2022-09-20T09:49:02;33.49;38.01
64918;HTU21D;52176;44.858;38.372;2022-09-20T09:51:29;33.88;37.14
64918;HTU21D;52176;44.858;38.372;2022-09-20T09:53:56;33.62;37.30
64918;HTU21D;52176;44.858;38.372;2022-09-20T10:02:19;33.64;37.01
64918;HTU21D;52176;44.858;38.372;2022-09-20T10:19:16;34.35;36.59
64918;HTU21D;52176;44.858;38.372;2022-09-20T10:35:25;35.40;34.71
64918;HTU21D;52176;44.858;38.372;2022-09-20T10:44:08;35.21;35.14
64918;HTU21D;52176;44.858;38.372;2022-09-20T10:46:55;34.83;35.38
64918;HTU21D;52176;44.858;38.372;2022-09-20T10:57:40;33.44;37.55
64918;HTU21D;52176;44.858;38.372;2022-09-20T11:00:18;32.92;38.61
64918;HTU21D;52176;44.858;38.372;2022-09-20T11:08:46;32.56;39.14
64918;HTU21D;52176;44.858;38.372;2022-09-20T11:26:53;30.54;42.97
64918;HTU21D;52176;44.858;38.372;2022-09-20T11:29:32;30.52;43.07
64918;HTU21D;52176;44.858;38.372;2022-09-20T11:32:43;0.00;43.16
64918;HTU21D;52176;44.858;38.372;2022-09-20T11:35:19;30.46;43.26
64918;HTU21D;52176;44.858;38.372;2022-09-20T11:37:53;30.27;43.25
64918;HTU21D;52176;44.858;38.372;2022-09-20T11:40:36;30.04;43.45
64918;HTU21D;52176;44.858;38.372;2022-09-20T11:43:03;29.93;43.61
64918;HTU21D;52176;44.858;38.372;2022-09-20T11:45:31;29.94;43.50
64918;HTU21D;52176;44.858;38.372;2022-09-20T11:48:18;30.09;43.53
64918;HTU21D;52176;44.858;38.372;2022-09-20T11:56:21;30.38;42.55
64918;HTU21D;52176;44.858;38.372;2022-09-20T11:58:51;30.38;42.67
64918;HTU21D;52176;44.858;38.372;2022-09-20T12:04:08;30.26;42.70
64918;HTU21D;52176;44.858;38.372;2022-09-20T12:06:38;30.27;42.97
64918;HTU21D;52176;44.858;38.372;2022-09-20T12:09:28;30.27;43.42
64918;HTU21D;52176;44.858;38.372;2022-09-20T12:11:55;30.24;43.33
64918;HTU21D;52176;44.858;38.372;2022-09-20T12:14:25;30.18;43.00
64918;HTU21D;52176;44.858;38.372;2022-09-20T12:16:53;30.11;43.19
64918;HTU21D;52176;44.858;38.372;2022-09-20T12:24:29;30.01;42.83
64918;HTU21D;52176;44.858;38.372;2022-09-20T12:26:58;29.93;43.02
64918;HTU21D;52176;44.858;38.372;2022-09-20T12:32:00;29.66;43.61
64918;HTU21D;52176;44.858;38.372;2022-09-20T12:34:35;29.48;43.55
64918;HTU21D;52176;44.858;38.372;2022-09-20T12:39:33;29.07;44.06
64918;HTU21D;52176;44.858;38.372;2022-09-20T12:53:11;28.72;45.09
64918;HTU21D;52176;44.858;38.372;2022-09-20T12:57:58;28.52;45.21
64918;HTU21D;52176;44.858;38.372;2022-09-20T13:00:30;28.42;45.86
64918;HTU21D;52176;44.858;38.372;2022-09-20T13:03:02;28.39;45.99
64918;HTU21D;52176;44.858;38.372;2022-09-20T13:05:36;28.31;46.25
64918;HTU21D;52176;44.858;38.372;2022-09-20T13:08:09;28.25;46.27
64918;HTU21D;52176;44.858;38.372;2022-09-20T13:10:59;28.20;46.02
64918;HTU21D;52176;44.858;38.372;2022-09-20T13:13:27;28.14;46.28
64918;HTU21D;52176;44.858;38.372;2022-09-20T13:15:56;28.13;46.49
64918;HTU21D;52176;44.858;38.372;2022-09-20T13:18:22;28.05;46.58
64918;HTU21D;52176;44.858;38.372;2022-09-20T13:20:49;27.98;46.69
64918;HTU21D;52176;44.858;38.372;2022-09-20T13:23:17;27.87;47.00
64918;HTU21D;52176;44.858;38.372;2022-09-20T13:25:44;27.76;47.05
64918;HTU21D;52176;44.858;38.372;2022-09-20T13:28:17;27.65;47.42
64918;HTU21D;52176;44.858;38.372;2022-09-20T13:30:45;27.54;47.63
64918;HTU21D;52176;44.858;38.372;2022-09-20T13:33:29;27.46;48.28
64918;HTU21D;52176;44.858;38.372;2022-09-20T13:35:55;0.00;47.80
64918;HTU21D;52176;44.858;38.372;2022-09-20T13:38:24;27.23;47.96
64918;HTU21D;52176;44.858;38.372;2022-09-20T13:40:51;27.14;48.15
64918;HTU21D;52176;44.858;38.372;2022-09-20T13:43:23;27.05;48.52
64918;HTU21D;52176;44.858;38.372;2022-09-20T13:45:59;26.95;49.05
64918;HTU21D;52176;44.858;38.372;2022-09-20T13:48:25;26.90;49.63
64918;HTU21D;52176;44.858;38.372;2022-09-20T13:50:52;26.82;50.34
64918;HTU21D;52176;44.858;38.372;2022-09-20T13:53:18;26.76;50.39
64918;HTU21D;52176;44.858;38.372;2022-09-20T13:55:43;26.68;50.59
64918;HTU21D;52176;44.858;38.372;2022-09-20T14:00:48;26.52;50.65
64918;HTU21D;52176;44.858;38.372;2022-09-20T14:03:16;26.43;51.33
64918;HTU21D;52176;44.858;38.372;2022-09-20T14:05:49;26.34;51.40
64918;HTU21D;52176;44.858;38.372;2022-09-20T14:08:26;26.26;51.41
64918;HTU21D;52176;44.858;38.372;2022-09-20T14:13:38;26.08;52.55
64918;HTU21D;52176;44.858;38.372;2022-09-20T14:16:05;25.99;53.20
64918;HTU21D;52176;44.858;38.372;2022-09-20T14:18:31;25.93;53.88
64918;HTU21D;52176;44.858;38.372;2022-09-20T14:20:57;25.86;53.25
64918;HTU21D;52176;44.858;38.372;2022-09-20T14:23:25;25.78;53.32
64918;HTU21D;52176;44.858;38.372;2022-09-20T14:26:04;25.69;53.46
64918;HTU21D;52176;44.858;38.372;2022-09-20T14:28:30;25.58;51.80
64918;HTU21D;52176;44.858;38.372;2022-09-20T14:31:03;25.44;50.84
64918;HTU21D;52176;44.858;38.372;2022-09-20T14:33:30;25.28;50.49
64918;HTU21D;52176;44.858;38.372;2022-09-20T14:35:56;25.15;50.48
64918;HTU21D;52176;44.858;38.372;2022-09-20T14:38:22;25.00;50.53
64918;HTU21D;52176;44.858;38.372;2022-09-20T14:40:49;24.86;50.54
64918;HTU21D;52176;44.858;38.372;2022-09-20T14:45:49;24.49;50.43
64918;HTU21D;52176;44.858;38.372;2022-09-20T14:50:42;24.17;50.79
64918;HTU21D;52176;44.858;38.372;2022-09-20T14:55:35;23.87;51.14
64918;HTU21D;52176;44.858;38.372;2022-09-20T14:58:04;23.73;51.14
64918;HTU21D;52176;44.858;38.372;2022-09-20T15:00:44;23.59;51.39
64918;HTU21D;52176;44.858;38.372;2022-09-20T15:03:11;23.44;51.43
64918;HTU21D;52176;44.858;38.372;2022-09-20T15:05:40;23.32;51.68
64918;HTU21D;52176;44.858;38.372;2022-09-20T15:08:07;23.23;51.95
64918;HTU21D;52176;44.858;38.372;2022-09-20T15:10:36;23.11;52.20
64918;HTU21D;52176;44.858;38.372;2022-09-20T15:13:02;22.99;52.51
64918;HTU21D;52176;44.858;38.372;2022-09-20T15:15:28;22.88;52.50
64918;HTU21D;52176;44.858;38.372;2022-09-20T15:17:53;22.77;52.51
64918;HTU21D;52176;44.858;38.372;2022-09-20T15:20:20;22.63;52.33
64918;HTU21D;52176;44.858;38.372;2022-09-20T15:22:46;22.51;52.29
64918;HTU21D;52176;44.858;38.372;2022-09-20T15:25:15;22.38;52.37
64918;HTU21D;52176;44.858;38.372;2022-09-20T15:27:41;22.26;52.52
64918;HTU21D;52176;44.858;38.372;2022-09-20T15:30:15;22.14;52.78
64918;HTU21D;52176;44.858;38.372;2022-09-20T15:32:42;22.05;53.18
64918;HTU21D;52176;44.858;38.372;2022-09-20T15:35:08;21.92;53.56
64918;HTU21D;52176;44.858;38.372;2022-09-20T15:37:34;21.81;53.84
64918;HTU21D;52176;44.858;38.372;2022-09-20T15:40:00;21.69;54.01
64918;HTU21D;52176;44.858;38.372;2022-09-20T15:42:27;21.57;54.19
64918;HTU21D;52176;44.858;38.372;2022-09-20T15:44:53;21.46;54.36
64918;HTU21D;52176;44.858;38.372;2022-09-20T15:47:19;21.35;54.54
64918;HTU21D;52176;44.858;38.372;2022-09-20T15:49:51;21.24;54.68
64918;HTU21D;52176;44.858;38.372;2022-09-20T15:52:17;21.15;54.88
64918;HTU21D;52176;44.858;38.372;2022-09-20T15:54:49;21.03;55.24
64918;HTU21D;52176;44.858;38.372;2022-09-20T15:57:15;20.91;55.59
64918;HTU21D;52176;44.858;38.372;2022-09-20T15:59:41;20.84;55.90
64918;HTU21D;52176;44.858;38.372;2022-09-20T16:02:07;20.73;56.19
64918;HTU21D;52176;44.858;38.372;2022-09-20T16:04:34;20.63;56.57
64918;HTU21D;52176;44.858;38.372;2022-09-20T16:07:00;20.55;56.84
64918;HTU21D;52176;44.858;38.372;2022-09-20T16:09:27;20.48;56.97
64918;HTU21D;52176;44.858;38.372;2022-09-20T16:11:53;20.40;56.89
64918;HTU21D;52176;44.858;38.372;2022-09-20T16:14:23;20.33;56.88
64918;HTU21D;52176;44.858;38.372;2022-09-20T16:16:49;20.30;56.87
64918;HTU21D;52176;44.858;38.372;2022-09-20T16:19:14;20.24;56.70
64918;HTU21D;52176;44.858;38.372;2022-09-20T16:21:47;20.19;56.45
64918;HTU21D;52176;44.858;38.372;2022-09-20T16:24:14;20.15;56.26
64918;HTU21D;52176;44.858;38.372;2022-09-20T16:26:40;20.10;56.16
64918;HTU21D;52176;44.858;38.372;2022-09-20T16:29:06;20.02;56.24
64918;HTU21D;52176;44.858;38.372;2022-09-20T16:31:39;19.97;56.29
64918;HTU21D;52176;44.858;38.372;2022-09-20T16:34:06;19.91;56.47
64918;HTU21D;52176;44.858;38.372;2022-09-20T16:36:35;19.86;56.60
64918;HTU21D;52176;44.858;38.372;2022-09-20T16:39:01;19.79;56.80
64918;HTU21D;52176;44.858;38.372;2022-09-20T16:41:27;19.71;57.09
64918;HTU21D;52176;44.858;38.372;2022-09-20T16:43:54;19.66;57.27
64918;HTU21D;52176;44.858;38.372;2022-09-20T16:46:20;19.58;57.43
64918;HTU21D;52176;44.858;38.372;2022-09-20T16:48:47;19.52;57.64
64918;HTU21D;52176;44.858;38.372;2022-09-20T16:51:14;19.47;57.88
64918;HTU21D;52176;44.858;38.372;2022-09-20T16:53:40;19.41;58.06
64918;HTU21D;52176;44.858;38.372;2022-09-20T16:56:06;19.37;58.25
64918;HTU21D;52176;44.858;38.372;2022-09-20T16:58:32;19.32;58.48
64918;HTU21D;52176;44.858;38.372;2022-09-20T17:01:03;19.28;58.70
64918;HTU21D;52176;44.858;38.372;2022-09-20T17:03:29;19.24;58.99
64918;HTU21D;52176;44.858;38.372;2022-09-20T17:06:01;19.21;59.27
64918;HTU21D;52176;44.858;38.372;2022-09-20T17:08:26;19.15;59.54
64918;HTU21D;52176;44.858;38.372;2022-09-20T17:10:56;19.10;59.83
64918;HTU21D;52176;44.858;38.372;2022-09-20T17:13:22;19.03;60.06
64918;HTU21D;52176;44.858;38.372;2022-09-20T17:15:58;18.98;60.37
64918;HTU21D;52176;44.858;38.372;2022-09-20T17:18:24;18.92;60.58
64918;HTU21D;52176;44.858;38.372;2022-09-20T17:20:50;18.86;60.77
64918;HTU21D;52176;44.858;38.372;2022-09-20T17:23:15;18.82;60.99
64918;HTU21D;52176;44.858;38.372;2022-09-20T17:25:41;18.78;61.16
64918;HTU21D;52176;44.858;38.372;2022-09-20T17:28:10;18.74;61.28
64918;HTU21D;52176;44.858;38.372;2022-09-20T17:30:36;18.71;61.46
64918;HTU21D;52176;44.858;38.372;2022-09-20T17:33:02;18.67;61.60
64918;HTU21D;52176;44.858;38.372;2022-09-20T17:35:28;18.64;61.83
64918;HTU21D;52176;44.858;38.372;2022-09-20T17:37:53;18.62;62.08
64918;HTU21D;52176;44.858;38.372;2022-09-20T17:40:19;18.58;62.27
64918;HTU21D;52176;44.858;38.372;2022-09-20T17:42:45;18.53;62.50
64918;HTU21D;52176;44.858;38.372;2022-09-20T17:45:13;18.50;62.73
64918;HTU21D;52176;44.858;38.372;2022-09-20T17:47:39;18.46;62.95
64918;HTU21D;52176;44.858;38.372;2022-09-20T17:50:07;18.41;63.09
64918;HTU21D;52176;44.858;38.372;2022-09-20T17:52:36;18.38;63.28
64918;HTU21D;52176;44.858;38.372;2022-09-20T17:55:02;18.34;63.46
64918;HTU21D;52176;44.858;38.372;2022-09-20T17:57:27;18.29;63.64
64918;HTU21D;52176;44.858;38.372;2022-09-20T17:59:53;18.24;63.80
64918;HTU21D;52176;44.858;38.372;2022-09-20T18:02:19;18.20;63.97
64918;HTU21D;52176;44.858;38.372;2022-09-20T18:04:45;18.15;64.05
64918;HTU21D;52176;44.858;38.372;2022-09-20T18:07:11;18.10;64.25
64918;HTU21D;52176;44.858;38.372;2022-09-20T18:09:37;18.07;64.46
64918;HTU21D;52176;44.858;38.372;2022-09-20T18:12:02;18.02;64.63
64918;HTU21D;52176;44.858;38.372;2022-09-20T18:14:29;17.97;64.80
64918;HTU21D;52176;44.858;38.372;2022-09-20T18:16:57;17.93;65.00
64918;HTU21D;52176;44.858;38.372;2022-09-20T18:19:25;17.87;65.21
64918;HTU21D;52176;44.858;38.372;2022-09-20T18:21:57;17.83;65.40
64918;HTU21D;52176;44.858;38.372;2022-09-20T18:24:22;17.80;65.62
64918;HTU21D;52176;44.858;38.372;2022-09-20T18:26:48;17.76;65.87
64918;HTU21D;52176;44.858;38.372;2022-09-20T18:29:15;17.72;66.06
64918;HTU21D;52176;44.858;38.372;2022-09-20T18:31:44;17.66;66.24
64918;HTU21D;52176;44.858;38.372;2022-09-20T18:34:12;17.61;66.42
64918;HTU21D;52176;44.858;38.372;2022-09-20T18:36:39;17.53;66.46
64918;HTU21D;52176;44.858;38.372;2022-09-20T18:39:05;17.49;66.64
64918;HTU21D;52176;44.858;38.372;2022-09-20T18:41:34;17.43;66.78
64918;HTU21D;52176;44.858;38.372;2022-09-20T18:44:00;17.40;66.99
64918;HTU21D;52176;44.858;38.372;2022-09-20T18:46:28;17.34;67.11
64918;HTU21D;52176;44.858;38.372;2022-09-20T18:48:59;17.30;67.24
64918;HTU21D;52176;44.858;38.372;2022-09-20T18:51:26;17.28;67.33
64918;HTU21D;52176;44.858;38.372;2022-09-20T18:53:55;17.25;67.43
64918;HTU21D;52176;44.858;38.372;2022-09-20T18:56:28;17.21;67.55
64918;HTU21D;52176;44.858;38.372;2022-09-20T18:59:03;17.18;67.65
64918;HTU21D;52176;44.858;38.372;2022-09-20T19:06:22;17.07;68.11
64918;HTU21D;52176;44.858;38.372;2022-09-20T19:08:55;17.02;68.25
64918;HTU21D;52176;44.858;38.372;2022-09-20T19:11:29;16.95;68.44
64918;HTU21D;52176;44.858;38.372;2022-09-20T19:14:08;16.89;68.58
64918;HTU21D;52176;44.858;38.372;2022-09-20T19:16:35;16.81;68.75
64918;HTU21D;52176;44.858;38.372;2022-09-20T19:21:36;16.71;69.13
64918;HTU21D;52176;44.858;38.372;2022-09-20T19:24:11;16.67;69.24
64918;HTU21D;52176;44.858;38.372;2022-09-20T19:26:38;16.65;69.33
64918;HTU21D;52176;44.858;38.372;2022-09-20T19:31:41;16.59;69.55
64918;HTU21D;52176;44.858;38.372;2022-09-20T19:34:40;16.54;69.71
64918;HTU21D;52176;44.858;38.372;2022-09-20T19:43:09;16.46;70.06
64918;HTU21D;52176;44.858;38.372;2022-09-20T19:50:26;16.45;70.35
64918;HTU21D;52176;44.858;38.372;2022-09-20T19:52:54;16.45;70.47
64918;HTU21D;52176;44.858;38.372;2022-09-20T19:55:22;16.46;70.62
64918;HTU21D;52176;44.858;38.372;2022-09-20T19:57:48;16.47;70.68
64918;HTU21D;52176;44.858;38.372;2022-09-20T20:00:16;16.48;70.74
64918;HTU21D;52176;44.858;38.372;2022-09-20T20:02:42;16.49;70.77
64918;HTU21D;52176;44.858;38.372;2022-09-20T20:05:10;16.49;70.84
64918;HTU21D;52176;44.858;38.372;2022-09-20T20:23:10;16.63;70.96
64918;HTU21D;52176;44.858;38.372;2022-09-20T20:25:51;16.65;70.97
64918;HTU21D;52176;44.858;38.372;2022-09-20T20:28:20;16.67;70.97
64918;HTU21D;52176;44.858;38.372;2022-09-20T20:30:45;16.71;71.06
64918;HTU21D;52176;44.858;38.372;2022-09-20T20:33:14;16.74;71.15
64918;HTU21D;52176;44.858;38.372;2022-09-20T20:35:40;16.77;71.35
64918;HTU21D;52176;44.858;38.372;2022-09-20T20:38:06;16.79;71.57
64918;HTU21D;52176;44.858;38.372;2022-09-20T20:40:36;16.78;71.90
64918;HTU21D;52176;44.858;38.372;2022-09-20T20:43:02;16.78;72.25
64918;HTU21D;52176;44.858;38.372;2022-09-20T20:45:30;16.77;72.67
64918;HTU21D;52176;44.858;38.372;2022-09-20T20:47:56;16.75;72.96
64918;HTU21D;52176;44.858;38.372;2022-09-20T20:50:26;16.73;73.44
64918;HTU21D;52176;44.858;38.372;2022-09-20T20:52:53;16.72;73.81
64918;HTU21D;52176;44.858;38.372;2022-09-20T20:55:19;16.69;74.18
64918;HTU21D;52176;44.858;38.372;2022-09-20T20:57:50;16.67;74.45
64918;HTU21D;52176;44.858;38.372;2022-09-20T21:00:16;16.67;74.71